Time;durP1;ratioP1;P1;durP2;ratioP2;P2;SDS_P1;SDS_P2;PMS_P1;PMS_P2;Temp;Humidity;BMP_temperature;BMP_pressure;BME280_temperature;BME280_humidity;BME280_pressure;Samples;Min_cycle;Max_cycle;Signal;HPM_P1;HPM_P2
2020/12/10 00:00:30;;;;;;;30.38;14.88;;;3.20;99.90;;;;;;5073316;28;20524;-67
2020/12/10 00:02:56;;;;;;;31.75;15.65;;;3.20;99.90;;;;;;5072114;28;20028;-67
2020/12/10 00:05:22;;;;;;;29.20;13.77;;;3.10;99.90;;;;;;5072087;28;20020;-68
2020/12/10 00:07:47;;;;;;;27.53;15.00;;;3.10;99.90;;;;;;5073446;28;20017;-68
2020/12/10 00:10:13;;;;;;;28.17;14.80;;;3.10;99.90;;;;;;5073224;28;20471;-68
2020/12/10 00:12:45;;;;;;;24.97;13.73;;;3.10;99.90;;;;;;5073788;28;20116;-68
2020/12/10 00:15:11;;;;;;;27.48;14.68;;;3.10;99.90;;;;;;5073361;28;20103;-68
2020/12/10 00:17:37;;;;;;;;;;;3.10;99.90;;;;;;5072549;28;20028;-68
2020/12/10 00:20:05;;;;;;;25.38;12.52;;;3.10;99.90;;;;;;5071910;28;19930;-68
2020/12/10 00:22:33;;;;;;;23.00;12.75;;;3.10;99.90;;;;;;5073215;28;20029;-67
2020/12/10 00:24:59;;;;;;;31.88;16.98;;;3.10;99.90;;;;;;5073408;28;20021;-68
2020/12/10 00:27:25;;;;;;;26.90;13.95;;;3.20;99.90;;;;;;5073361;28;20017;-67
2020/12/10 00:29:51;;;;;;;26.45;14.25;;;3.10;99.90;;;;;;5073039;28;20027;-68
2020/12/10 00:32:17;;;;;;;25.30;14.07;;;3.10;99.90;;;;;;5071664;28;20016;-67
2020/12/10 00:34:44;;;;;;;26.77;13.98;;;3.10;99.90;;;;;;5073115;28;20029;-68
2020/12/10 00:37:10;;;;;;;34.03;17.70;;;3.00;99.90;;;;;;5073073;28;20469;-68
2020/12/10 00:39:36;;;;;;;24.10;13.33;;;3.00;99.90;;;;;;5071886;28;20069;-67
2020/12/10 00:42:03;;;;;;;28.48;14.45;;;3.00;99.90;;;;;;5071825;28;20016;-67
2020/12/10 00:44:29;;;;;;;27.00;14.15;;;3.00;99.90;;;;;;5073297;28;20529;-67
2020/12/10 00:46:55;;;;;;;30.50;16.58;;;3.10;99.90;;;;;;5071633;28;20028;-68
2020/12/10 00:49:22;;;;;;;27.35;15.15;;;3.20;99.90;;;;;;5072875;28;20385;-68
2020/12/10 00:51:48;;;;;;;30.95;17.33;;;3.20;99.90;;;;;;5073011;28;20039;-68
2020/12/10 00:54:14;;;;;;;27.50;14.63;;;3.30;99.90;;;;;;5072947;28;20036;-68
2020/12/10 00:56:40;;;;;;;23.45;12.95;;;3.20;99.90;;;;;;5074561;28;20392;-67
2020/12/10 00:59:05;;;;;;;26.60;13.25;;;3.20;99.90;;;;;;5073690;28;20053;-67
2020/12/10 01:01:31;;;;;;;26.93;13.77;;;3.40;99.90;;;;;;5072307;28;20031;-66
2020/12/10 01:03:57;;;;;;;24.13;12.87;;;3.30;99.90;;;;;;5073154;28;20031;-66
2020/12/10 01:06:22;;;;;;;24.77;12.73;;;3.20;99.90;;;;;;5073480;28;20115;-66
2020/12/10 01:08:48;;;;;;;24.83;13.40;;;3.30;99.90;;;;;;5076885;28;20025;-65
2020/12/10 01:11:14;;;;;;;24.10;12.97;;;3.50;99.90;;;;;;5077303;28;20434;-65
2020/12/10 01:13:39;;;;;;;23.97;12.50;;;3.40;99.90;;;;;;5077158;28;20077;-65
2020/12/10 01:16:05;;;;;;;21.93;11.60;;;3.40;99.90;;;;;;5076815;28;20029;-66
2020/12/10 01:18:30;;;;;;;24.53;12.07;;;3.30;99.90;;;;;;5075765;28;20024;-66
2020/12/10 01:20:56;;;;;;;28.20;13.13;;;3.30;99.90;;;;;;5076985;28;20480;-66
2020/12/10 01:23:22;;;;;;;23.90;12.77;;;3.30;99.90;;;;;;5076364;28;20482;-66
2020/12/10 01:25:47;;;;;;;23.70;13.37;;;3.20;99.90;;;;;;5075484;28;20163;-66
2020/12/10 01:28:13;;;;;;;31.07;13.87;;;3.20;99.90;;;;;;5075339;28;20055;-66
2020/12/10 01:30:38;;;;;;;23.23;12.30;;;3.20;99.90;;;;;;5076551;28;20044;-66
2020/12/10 01:33:04;;;;;;;25.30;13.03;;;3.20;99.90;;;;;;5075212;28;20388;-66
2020/12/10 01:35:30;;;;;;;23.43;13.03;;;3.20;99.90;;;;;;5075212;28;20062;-66
2020/12/10 01:37:55;;;;;;;23.07;12.57;;;3.20;99.90;;;;;;5076371;28;20422;-66
2020/12/10 01:40:21;;;;;;;25.67;13.57;;;3.20;99.90;;;;;;5076317;28;20042;-66
2020/12/10 01:42:46;;;;;;;25.73;14.10;;;3.20;99.90;;;;;;5076503;28;20055;-66
2020/12/10 01:45:12;;;;;;;26.53;13.37;;;3.20;99.90;;;;;;5076202;28;20050;-66
2020/12/10 01:47:38;;;;;;;23.60;12.00;;;3.40;99.90;;;;;;5076140;28;20024;-66
2020/12/10 01:50:04;;;;;;;22.40;12.23;;;3.70;99.90;;;;;;5075997;28;20112;-65
2020/12/10 01:52:30;;;;;;;24.98;13.02;;;3.50;99.90;;;;;;5076071;28;20481;-66
2020/12/10 01:54:55;;;;;;;23.20;12.67;;;3.40;99.90;;;;;;5075931;28;20036;-66
2020/12/10 01:57:21;;;;;;;22.93;12.40;;;3.40;99.90;;;;;;5075934;28;20032;-66
2020/12/10 01:59:51;;;;;;;23.50;13.00;;;3.30;99.90;;;;;;5076007;28;20063;-66
2020/12/10 02:02:16;;;;;;;26.83;13.18;;;3.50;99.90;;;;;;5074608;28;20034;-66
2020/12/10 02:04:43;;;;;;;25.37;12.70;;;3.40;99.90;;;;;;5075734;28;20021;-66
2020/12/10 02:07:09;;;;;;;22.58;12.20;;;3.40;99.90;;;;;;5076073;28;20024;-66
2020/12/10 02:09:35;;;;;;;24.07;12.67;;;3.40;99.90;;;;;;5074295;28;20124;-66
2020/12/10 02:12:00;;;;;;;24.73;12.87;;;3.40;99.90;;;;;;5075955;28;20091;-66
2020/12/10 02:14:38;;;;;;;24.27;12.67;;;3.50;99.90;;;;;;5074237;28;20651;-66
2020/12/10 02:17:05;;;;;;;26.13;13.85;;;3.50;99.90;;;;;;5073746;28;20036;-66
2020/12/10 02:19:31;;;;;;;24.08;12.68;;;3.40;99.90;;;;;;5075360;28;20043;-66
2020/12/10 02:21:57;;;;;;;22.20;13.37;;;3.30;99.90;;;;;;5075284;28;20444;-66
2020/12/10 02:24:23;;;;;;;22.40;12.40;;;3.20;99.90;;;;;;5075382;28;20808;-66
2020/12/10 02:26:49;;;;;;;25.80;12.50;;;3.30;99.90;;;;;;5075164;28;20024;-66
2020/12/10 02:29:19;;;;;;;22.07;11.90;;;3.30;99.90;;;;;;5075446;28;20029;-66
2020/12/10 02:31:45;;;;;;;22.77;12.43;;;3.30;99.90;;;;;;5075498;28;20081;-66
2020/12/10 02:34:12;;;;;;;25.05;13.05;;;3.20;99.90;;;;;;5075952;28;20028;-66
2020/12/10 02:36:38;;;;;;;27.75;12.60;;;3.20;99.90;;;;;;5075815;28;20480;-66
2020/12/10 02:39:07;;;;;;;23.60;13.18;;;3.30;99.90;;;;;;5074313;28;20078;-65
2020/12/10 02:41:34;;;;;;;24.17;12.98;;;3.30;99.90;;;;;;5075502;28;20031;-66
2020/12/10 02:44:00;;;;;;;25.40;13.43;;;3.30;99.90;;;;;;5074116;28;20370;-65
2020/12/10 02:46:26;;;;;;;26.02;13.40;;;3.40;99.90;;;;;;5075147;28;20036;-66
2020/12/10 02:48:53;;;;;;;22.67;12.33;;;3.60;99.90;;;;;;5075166;28;20039;-66
2020/12/10 02:51:18;;;;;;;25.27;13.65;;;3.70;99.90;;;;;;5075462;28;20377;-67
2020/12/10 02:53:44;;;;;;;24.37;13.27;;;3.60;99.90;;;;;;5075306;28;20020;-66
2020/12/10 02:56:15;;;;;;;25.20;13.27;;;3.50;99.90;;;;;;5073851;28;20060;-66
2020/12/10 02:58:41;;;;;;;26.27;14.07;;;3.40;99.90;;;;;;5073649;28;20024;-66
2020/12/10 03:01:08;;;;;;;22.75;13.07;;;3.40;99.90;;;;;;5073612;28;20393;-66
2020/12/10 03:03:35;;;;;;;26.45;12.75;;;3.40;99.90;;;;;;5075110;28;20582;-66
2020/12/10 03:06:00;;;;;;;23.05;12.82;;;3.30;99.90;;;;;;5074816;28;20029;-66
2020/12/10 03:08:26;;;;;;;24.67;12.80;;;3.30;99.90;;;;;;5074872;28;20040;-67
2020/12/10 03:10:53;;;;;;;23.43;12.63;;;3.50;99.90;;;;;;5074913;28;20427;-67
2020/12/10 03:13:20;;;;;;;26.90;13.05;;;3.70;99.90;;;;;;5074762;28;20032;-65
2020/12/10 03:15:46;;;;;;;21.45;12.00;;;3.60;99.90;;;;;;5074887;28;20481;-69
2020/12/10 03:18:11;;;;;;;23.80;13.63;;;3.60;99.90;;;;;;5074704;28;20103;-67
2020/12/10 03:20:37;;;;;;;21.43;12.37;;;3.50;99.90;;;;;;5073334;28;20024;-65
2020/12/10 03:23:04;;;;;;;23.77;12.83;;;3.40;99.90;;;;;;5074584;28;20511;-65
2020/12/10 03:25:30;;;;;;;25.48;13.52;;;3.40;99.90;;;;;;5073123;28;20056;-66
2020/12/10 03:27:55;;;;;;;25.45;13.23;;;3.40;99.90;;;;;;5074594;28;20024;-66
2020/12/10 03:30:21;;;;;;;24.33;12.63;;;3.40;99.90;;;;;;5073792;28;20419;-66
2020/12/10 03:32:47;;;;;;;25.70;13.82;;;3.40;99.90;;;;;;5074456;28;20025;-66
2020/12/10 03:35:13;;;;;;;24.23;13.83;;;3.30;99.90;;;;;;5074276;28;20040;-66
2020/12/10 03:37:38;;;;;;;22.77;12.47;;;3.30;99.90;;;;;;5074324;28;20031;-65
2020/12/10 03:40:04;;;;;;;24.70;12.73;;;3.30;99.90;;;;;;5072798;28;20481;-67
2020/12/10 03:42:31;;;;;;;25.15;12.30;;;3.50;99.90;;;;;;5074124;28;20064;-65
2020/12/10 03:44:57;;;;;;;21.88;12.00;;;3.70;99.90;;;;;;5072743;28;20073;-67
2020/12/10 03:47:22;;;;;;;21.63;12.20;;;3.90;99.90;;;;;;5072727;28;20016;-65
2020/12/10 03:49:49;;;;;;;24.13;12.60;;;3.80;99.90;;;;;;5074378;28;20039;-65
2020/12/10 03:52:15;;;;;;;23.90;12.60;;;3.70;99.90;;;;;;5073989;28;20558;-66
2020/12/10 03:54:41;;;;;;;21.80;12.30;;;3.50;99.90;;;;;;5074056;28;20020;-66
2020/12/10 03:57:07;;;;;;;22.87;14.13;;;3.50;99.90;;;;;;5074355;28;20077;-66
2020/12/10 03:59:32;;;;;;;21.23;12.30;;;3.60;99.90;;;;;;5073992;28;20501;-65
2020/12/10 04:01:58;;;;;;;26.77;13.57;;;3.50;99.90;;;;;;5074115;28;20025;-66
2020/12/10 04:04:23;;;;;;;22.37;12.40;;;3.50;99.90;;;;;;5077092;28;20024;-66
2020/12/10 04:06:49;;;;;;;23.20;13.00;;;3.50;99.90;;;;;;5076834;28;20029;-66
2020/12/10 04:09:15;;;;;;;23.70;13.57;;;3.30;99.90;;;;;;5074091;28;20444;-66
2020/12/10 04:11:41;;;;;;;23.40;12.87;;;3.20;99.90;;;;;;5075590;28;20473;-65
2020/12/10 04:14:07;;;;;;;24.95;13.80;;;3.20;99.90;;;;;;5072574;28;20032;-67
2020/12/10 04:16:32;;;;;;;24.37;13.23;;;3.20;99.90;;;;;;5073793;28;20481;-66
2020/12/10 04:18:58;;;;;;;25.50;13.00;;;3.10;99.90;;;;;;5073580;28;20035;-66
2020/12/10 04:21:24;;;;;;;25.83;13.60;;;3.20;99.90;;;;;;5072413;28;20025;-65
2020/12/10 04:23:51;;;;;;;23.85;12.82;;;3.10;99.90;;;;;;5073576;28;20020;-66
2020/12/10 04:26:17;;;;;;;26.75;13.90;;;3.10;99.90;;;;;;5073717;28;20043;-66
2020/12/10 04:28:43;;;;;;;28.27;15.00;;;3.10;99.90;;;;;;5073576;28;20017;-66
2020/12/10 04:31:09;;;;;;;27.20;13.48;;;3.00;99.90;;;;;;5074084;28;20028;-65
2020/12/10 04:33:35;;;;;;;29.37;14.90;;;3.00;99.90;;;;;;5072501;28;20039;-65
2020/12/10 04:36:01;;;;;;;25.13;13.48;;;3.00;99.90;;;;;;5073551;28;20032;-66
2020/12/10 04:38:27;;;;;;;23.70;12.98;;;2.90;99.90;;;;;;5074077;28;20039;-66
2020/12/10 04:40:53;;;;;;;24.65;13.30;;;3.00;99.90;;;;;;5073278;28;20020;-66
2020/12/10 04:43:26;;;;;;;28.83;12.97;;;3.00;99.90;;;;;;5073688;28;20033;-66
2020/12/10 04:46:03;;;;;;;24.70;13.10;;;3.00;99.90;;;;;;5072318;28;20032;-67
2020/12/10 04:48:30;;;;;;;25.60;13.30;;;3.00;99.90;;;;;;5072684;28;20051;-65
2020/12/10 04:50:58;;;;;;;29.70;13.95;;;3.00;99.90;;;;;;5072177;28;20052;-66
2020/12/10 04:53:26;;;;;;;27.52;13.70;;;3.00;99.90;;;;;;5073782;28;20029;-66
2020/12/10 04:55:56;;;;;;;24.02;13.70;;;3.00;99.90;;;;;;5073551;28;20504;-66
2020/12/10 04:58:22;;;;;;;29.48;13.40;;;2.90;99.90;;;;;;5073930;28;20495;-66
2020/12/10 05:00:55;;;;;;;23.30;12.33;;;2.90;99.90;;;;;;5073168;28;20060;-66
2020/12/10 05:03:22;;;;;;;24.50;13.55;;;2.90;99.90;;;;;;5073045;28;20023;-66
2020/12/10 05:05:47;;;;;;;24.88;13.65;;;2.90;99.90;;;;;;5073177;28;20385;-66
2020/12/10 05:08:13;;;;;;;27.50;12.87;;;3.00;99.90;;;;;;5073378;28;20028;-66
2020/12/10 05:10:45;;;;;;;23.70;12.60;;;3.00;99.90;;;;;;5073344;28;20074;-65
2020/12/10 05:13:13;;;;;;;23.23;12.60;;;3.10;99.90;;;;;;5073167;28;20477;-65
2020/12/10 05:15:40;;;;;;;23.63;13.43;;;3.00;99.90;;;;;;5072992;28;20027;-66
2020/12/10 05:18:14;;;;;;;25.75;13.38;;;3.00;99.90;;;;;;5073173;28;20477;-65
2020/12/10 05:20:42;;;;;;;25.67;13.13;;;3.00;99.90;;;;;;5072718;28;20032;-66
2020/12/10 05:23:08;;;;;;;22.35;12.98;;;3.00;99.90;;;;;;5072812;28;20420;-66
2020/12/10 05:25:47;;;;;;;22.42;12.63;;;3.00;99.90;;;;;;5072728;28;20108;-66
2020/12/10 05:28:13;;;;;;;25.10;12.68;;;3.00;99.90;;;;;;5072944;28;20049;-66
2020/12/10 05:30:43;;;;;;;24.57;14.00;;;3.00;99.90;;;;;;5073558;28;20055;-67
2020/12/10 05:33:11;;;;;;;24.15;12.90;;;3.00;99.90;;;;;;5073367;28;20020;-66
2020/12/10 05:35:37;;;;;;;24.80;13.27;;;3.10;99.90;;;;;;5071321;28;20112;-65
2020/12/10 05:38:13;;;;;;;28.00;14.00;;;3.10;99.90;;;;;;5072897;28;20103;-65
2020/12/10 05:40:40;;;;;;;24.27;13.50;;;3.10;99.90;;;;;;5072605;28;20078;-66
2020/12/10 05:43:06;;;;;;;24.38;12.88;;;3.20;99.90;;;;;;5072768;28;20036;-69
2020/12/10 05:45:37;;;;;;;;;;;3.20;99.90;;;;;;5071794;28;20035;-67
2020/12/10 05:48:02;;;;;;;22.88;11.82;;;3.30;99.90;;;;;;5071349;28;19951;-66
2020/12/10 05:50:33;;;;;;;24.27;12.63;;;3.30;99.90;;;;;;5072599;28;20028;-66
2020/12/10 05:53:06;;;;;;;22.58;12.55;;;3.30;99.90;;;;;;5074383;28;20040;-66
2020/12/10 05:55:33;;;;;;;23.83;13.35;;;3.30;99.90;;;;;;5075029;28;20024;-66
2020/12/10 05:58:00;;;;;;;25.73;12.95;;;3.20;99.90;;;;;;5076362;28;20393;-66
2020/12/10 06:00:27;;;;;;;22.88;12.32;;;3.20;99.90;;;;;;5075928;28;20113;-67
2020/12/10 06:02:55;;;;;;;21.58;12.18;;;3.20;99.90;;;;;;5076352;28;20020;-66
2020/12/10 06:05:23;;;;;;;20.92;12.07;;;3.20;99.90;;;;;;5075846;28;20032;-64
2020/12/10 06:08:01;;;;;;;16.45;8.95;;;3.20;99.90;;;;;;5075996;28;20070;-65
2020/12/10 06:10:28;;;;;;;16.73;9.25;;;3.30;99.90;;;;;;5075734;28;20012;-65
2020/12/10 06:12:54;;;;;;;20.20;10.60;;;3.30;99.90;;;;;;5075895;28;20016;-65
2020/12/10 06:15:24;;;;;;;19.83;10.43;;;3.30;99.90;;;;;;5075916;28;20112;-66
2020/12/10 06:18:00;;;;;;;20.85;10.82;;;3.30;99.90;;;;;;5076016;28;20029;-66
2020/12/10 06:20:32;;;;;;;19.27;10.40;;;3.40;99.90;;;;;;5076109;28;20069;-66
2020/12/10 06:23:29;;;;;;;19.30;10.98;;;3.70;99.90;;;;;;5075757;28;20124;-65
2020/12/10 06:25:56;;;;;;;18.65;10.20;;;3.80;99.90;;;;;;5075918;28;20028;-66
2020/12/10 06:28:22;;;;;;;17.95;10.75;;;3.80;99.90;;;;;;5075889;28;20020;-66
2020/12/10 06:31:08;;;;;;;;;;;3.70;99.90;;;;;;5076179;28;20032;-65
2020/12/10 06:33:37;;;;;;;16.85;9.40;;;3.60;99.90;;;;;;5075563;28;19912;-65
2020/12/10 06:36:28;;;;;;;17.90;9.88;;;3.50;99.90;;;;;;5075774;28;20028;-65
2020/12/10 06:38:57;;;;;;;17.92;10.10;;;3.40;99.90;;;;;;5075495;28;20028;-65
2020/12/10 06:41:24;;;;;;;18.65;10.82;;;3.20;99.90;;;;;;5075157;28;20032;-66
2020/12/10 06:43:50;;;;;;;;;;;3.20;99.90;;;;;;5075297;28;20028;-68
2020/12/10 06:46:15;;;;;;;21.20;10.77;;;3.20;99.90;;;;;;5075733;28;19920;-68
2020/12/10 06:48:47;;;;;;;22.33;11.30;;;3.20;99.90;;;;;;5075936;28;20481;-66
2020/12/10 06:51:14;;;;;;;21.10;11.57;;;3.20;99.90;;;;;;5075317;28;20579;-69
2020/12/10 06:53:40;;;;;;;23.10;10.88;;;3.20;99.90;;;;;;5074241;28;20029;-68
2020/12/10 06:56:14;;;;;;;23.45;11.30;;;3.30;99.90;;;;;;5075489;28;20095;-68
2020/12/10 06:58:41;;;;;;;22.95;11.73;;;3.30;99.90;;;;;;5077142;28;20036;-68
2020/12/10 07:01:25;;;;;;;19.38;11.10;;;3.40;99.90;;;;;;5079494;22;20072;-70
2020/12/10 07:03:56;;;;;;;22.75;12.30;;;3.40;99.90;;;;;;5055097;28;20078;-69
2020/12/10 07:06:22;;;;;;;24.85;13.93;;;3.40;99.90;;;;;;5055948;28;20048;-70
2020/12/10 07:09:07;;;;;;;25.20;11.93;;;3.30;99.90;;;;;;5038054;28;20029;-69
2020/12/10 07:11:38;;;;;;;19.63;11.38;;;3.20;99.90;;;;;;5054180;28;20551;-69
2020/12/10 07:14:27;;;;;;;24.35;11.98;;;3.10;99.90;;;;;;5055775;28;20532;-70
2020/12/10 07:16:54;;;;;;;29.15;13.32;;;3.10;99.90;;;;;;5054025;28;20435;-70
2020/12/10 07:19:20;;;;;;;22.55;12.30;;;3.00;99.90;;;;;;5055258;28;20029;-70
2020/12/10 07:21:46;;;;;;;23.27;12.65;;;3.00;99.90;;;;;;5037023;28;20064;-70
2020/12/10 07:24:12;;;;;;;21.60;11.67;;;3.00;99.90;;;;;;5055447;28;20040;-70
2020/12/10 07:26:38;;;;;;;22.90;11.10;;;3.00;99.90;;;;;;5053977;28;20102;-69
2020/12/10 07:29:04;;;;;;;22.88;11.48;;;3.00;99.90;;;;;;5055497;28;20029;-69
2020/12/10 07:31:30;;;;;;;23.67;11.85;;;3.00;99.90;;;;;;5037447;28;20029;-69
2020/12/10 07:33:56;;;;;;;24.10;12.63;;;3.00;99.90;;;;;;5055992;28;20386;-70
2020/12/10 07:36:23;;;;;;;27.23;13.15;;;2.90;99.90;;;;;;5053764;28;20025;-69
2020/12/10 07:38:49;;;;;;;24.67;13.63;;;2.90;99.90;;;;;;5055434;28;20064;-70
2020/12/10 07:41:15;;;;;;;22.10;12.30;;;3.00;99.90;;;;;;5056379;28;20025;-70
2020/12/10 07:43:49;;;;;;;23.80;12.25;;;3.00;99.90;;;;;;5055308;28;20053;-68
2020/12/10 07:46:15;;;;;;;22.25;12.07;;;3.00;99.90;;;;;;5053574;28;20393;-68
2020/12/10 07:48:42;;;;;;;23.45;12.48;;;3.00;99.90;;;;;;5053689;28;20052;-69
2020/12/10 07:51:08;;;;;;;20.98;12.07;;;3.00;99.90;;;;;;5055142;28;20028;-69
2020/12/10 07:53:34;;;;;;;20.95;11.30;;;2.90;99.90;;;;;;5054798;28;20021;-69
2020/12/10 07:56:02;;;;;;;20.90;11.60;;;2.90;99.90;;;;;;5054597;28;20059;-70
2020/12/10 07:58:36;;;;;;;24.15;12.50;;;2.90;99.90;;;;;;5055099;28;20052;-65
2020/12/10 08:01:05;;;;;;;23.30;12.27;;;2.90;99.90;;;;;;5036820;28;20432;-65
2020/12/10 08:03:55;;;;;;;27.08;12.60;;;3.00;99.90;;;;;;5054280;28;20473;-65
2020/12/10 08:06:21;;;;;;;23.58;12.10;;;3.00;99.90;;;;;;5052715;28;20032;-67
2020/12/10 08:08:58;;;;;;;23.05;12.32;;;3.10;99.90;;;;;;5053859;28;20021;-67
2020/12/10 08:11:24;;;;;;;19.75;10.55;;;3.10;99.90;;;;;;5036740;28;20485;-66
2020/12/10 08:14:08;;;;;;;20.25;10.63;;;3.20;99.90;;;;;;5052946;28;20435;-67
2020/12/10 08:16:40;;;;;;;21.40;12.02;;;3.10;99.90;;;;;;5053534;28;20076;-69
2020/12/10 08:19:15;;;;;;;22.40;11.05;;;3.10;99.90;;;;;;5054792;28;20028;-69
2020/12/10 08:21:42;;;;;;;26.80;10.82;;;3.10;99.90;;;;;;5054166;28;20501;-71
2020/12/10 08:24:08;;;;;;;20.98;11.68;;;3.10;99.90;;;;;;5036017;28;20040;-70
2020/12/10 08:26:34;;;;;;;20.35;10.95;;;3.00;99.90;;;;;;5052956;28;20025;-67
2020/12/10 08:29:00;;;;;;;18.87;11.20;;;3.00;99.90;;;;;;5052763;28;20087;-67
2020/12/10 08:31:28;;;;;;;21.33;12.20;;;3.00;99.90;;;;;;5035765;28;20059;-68
2020/12/10 08:33:54;;;;;;;18.00;10.23;;;3.00;99.90;;;;;;5053443;28;20088;-68
2020/12/10 08:36:33;;;;;;;22.17;11.45;;;3.00;99.90;;;;;;5053457;28;20060;-68
2020/12/10 08:39:01;;;;;;;25.02;11.40;;;2.90;99.90;;;;;;5053669;28;20025;-68
2020/12/10 08:41:32;;;;;;;19.75;11.00;;;3.00;99.90;;;;;;5035847;28;20078;-68
2020/12/10 08:44:01;;;;;;;22.52;11.73;;;2.90;99.90;;;;;;5053295;28;20108;-68
2020/12/10 08:46:28;;;;;;;17.95;11.05;;;3.00;99.90;;;;;;5051856;28;20159;-68
2020/12/10 08:48:55;;;;;;;21.98;11.65;;;3.00;99.90;;;;;;5035489;28;20039;-68
2020/12/10 08:51:21;;;;;;;18.73;11.05;;;3.10;99.90;;;;;;5053316;28;20013;-68
2020/12/10 08:53:52;;;;;;;20.77;11.52;;;3.10;99.90;;;;;;5035669;28;20028;-68
2020/12/10 08:56:22;;;;;;;23.30;13.15;;;3.10;99.90;;;;;;5056784;28;20546;-67
2020/12/10 08:58:49;;;;;;;18.48;10.95;;;3.10;99.90;;;;;;5052039;28;20029;-69
2020/12/10 09:01:14;;;;;;;22.05;11.82;;;3.10;99.90;;;;;;5035927;28;20028;-68
2020/12/10 09:03:40;;;;;;;26.10;12.80;;;3.10;99.90;;;;;;5053952;28;20031;-68
2020/12/10 09:06:06;;;;;;;23.97;12.93;;;3.10;99.90;;;;;;5036447;28;20036;-68
2020/12/10 09:08:31;;;;;;;22.73;11.33;;;3.10;99.90;;;;;;5053734;28;20423;-68
2020/12/10 09:10:57;;;;;;;21.93;11.97;;;3.10;99.90;;;;;;5036817;28;20021;-68
2020/12/10 09:13:23;;;;;;;22.30;11.83;;;3.10;99.90;;;;;;5057700;28;20096;-68
2020/12/10 09:15:49;;;;;;;;;;;3.10;99.90;;;;;;5052559;28;20044;-67
2020/12/10 09:18:15;;;;;;;23.10;12.00;;;3.10;99.90;;;;;;5035834;28;19904;-68
2020/12/10 09:20:41;;;;;;;22.93;12.50;;;3.20;99.90;;;;;;5053095;28;20036;-69
2020/12/10 09:23:07;;;;;;;20.17;11.60;;;3.20;99.90;;;;;;5054987;28;20032;-68
2020/12/10 09:25:33;;;;;;;21.60;12.63;;;3.20;99.90;;;;;;5056182;28;20405;-68
2020/12/10 09:27:59;;;;;;;21.47;11.60;;;3.20;99.90;;;;;;5055558;28;20033;-68
2020/12/10 09:30:24;;;;;;;24.73;13.23;;;3.20;99.90;;;;;;5057275;28;20031;-68
2020/12/10 09:32:50;;;;;;;21.47;11.83;;;3.10;99.90;;;;;;5056072;28;20481;-68
2020/12/10 09:35:16;;;;;;;23.00;11.60;;;3.10;99.90;;;;;;5055773;28;20032;-70
2020/12/10 09:37:42;;;;;;;21.13;11.20;;;3.10;99.90;;;;;;5039277;28;20028;-68
2020/12/10 09:40:11;;;;;;;23.15;11.95;;;3.10;99.90;;;;;;5038937;28;20516;-67
2020/12/10 09:42:38;;;;;;;22.45;12.65;;;3.10;99.90;;;;;;5055692;28;20029;-68
2020/12/10 09:45:04;;;;;;;20.75;12.27;;;3.20;99.90;;;;;;5039006;28;20035;-67
2020/12/10 09:47:30;;;;;;;25.00;13.68;;;3.20;99.90;;;;;;5057169;28;20024;-68
2020/12/10 09:49:56;;;;;;;23.87;12.93;;;3.10;99.90;;;;;;5056570;28;20021;-68
2020/12/10 09:52:22;;;;;;;24.23;12.73;;;3.20;99.90;;;;;;5056765;28;20021;-69
2020/12/10 09:57:29;;;;;;;23.60;13.27;;;3.20;99.90;;;;;;5057002;28;20029;-67
2020/12/10 09:59:56;;;;;;;23.75;13.85;;;3.30;99.90;;;;;;5055081;28;20082;-68
2020/12/10 10:02:22;;;;;;;28.05;13.18;;;3.30;99.90;;;;;;5057330;28;20025;-69
2020/12/10 10:04:47;;;;;;;27.87;15.97;;;3.40;99.90;;;;;;5056912;28;20017;-70
2020/12/10 10:07:13;;;;;;;24.53;12.43;;;3.30;99.90;;;;;;5038559;28;20075;-69
2020/12/10 10:09:40;;;;;;;24.17;13.40;;;3.30;99.90;;;;;;5038837;28;20481;-68
2020/12/10 10:12:05;;;;;;;23.58;13.50;;;3.30;99.90;;;;;;5057828;28;20017;-68
2020/12/10 10:14:32;;;;;;;25.30;14.10;;;3.40;99.90;;;;;;5041410;28;20024;-69
2020/12/10 10:16:58;;;;;;;;;;;3.40;99.90;;;;;;5039049;28;20060;-67
2020/12/10 10:19:24;;;;;;;23.75;12.85;;;3.40;99.90;;;;;;5056192;28;19905;-67
2020/12/10 10:21:50;;;;;;;28.23;14.18;;;3.50;99.90;;;;;;5057649;28;20055;-68
2020/12/10 10:24:15;;;;;;;23.23;13.27;;;3.50;99.90;;;;;;5038215;28;20493;-67
2020/12/10 10:26:41;;;;;;;29.20;13.87;;;3.50;99.90;;;;;;5056329;28;20036;-68
2020/12/10 10:29:08;;;;;;;25.23;13.63;;;3.50;99.90;;;;;;5056090;28;20355;-67
2020/12/10 10:31:34;;;;;;;20.95;12.50;;;3.50;99.90;;;;;;5055721;28;20257;-67
2020/12/10 10:34:00;;;;;;;25.98;14.32;;;3.50;99.90;;;;;;5055969;28;20105;-67
2020/12/10 10:36:25;;;;;;;29.10;15.90;;;3.50;99.90;;;;;;5038006;28;20469;-67
2020/12/10 10:38:51;;;;;;;29.97;15.90;;;3.60;99.90;;;;;;5055540;28;20024;-67
2020/12/10 10:41:17;;;;;;;32.13;16.07;;;3.60;99.90;;;;;;5040180;28;20029;-67
2020/12/10 10:43:42;;;;;;;24.77;12.73;;;3.60;99.90;;;;;;5054703;28;20430;-67
2020/12/10 10:46:08;;;;;;;26.00;13.40;;;3.60;99.90;;;;;;5055665;28;20025;-67
2020/12/10 10:48:34;;;;;;;30.43;15.63;;;3.70;99.90;;;;;;5037976;28;20032;-67
2020/12/10 10:50:59;;;;;;;32.70;17.37;;;3.70;99.90;;;;;;5055739;28;20044;-67
2020/12/10 10:53:25;;;;;;;31.20;15.77;;;3.80;99.90;;;;;;5055532;28;20267;-68
2020/12/10 10:55:51;;;;;;;27.57;14.70;;;3.80;99.90;;;;;;5037788;28;20388;-68
2020/12/10 10:58:17;;;;;;;30.20;15.57;;;3.80;99.90;;;;;;5044420;28;20040;-68
2020/12/10 11:00:46;;;;;;;29.77;16.33;;;3.60;99.90;;;;;;5059241;28;20438;-68
2020/12/10 11:03:12;;;;;;;25.23;13.75;;;3.60;99.90;;;;;;5053517;28;20033;-68
2020/12/10 11:05:37;;;;;;;22.73;12.97;;;3.70;99.90;;;;;;5053352;28;20067;-67
2020/12/10 11:08:03;;;;;;;26.30;13.73;;;3.80;99.90;;;;;;5055027;28;20075;-67
2020/12/10 11:10:29;;;;;;;23.80;12.73;;;3.70;99.90;;;;;;5053217;28;20703;-67
2020/12/10 11:12:54;;;;;;;22.93;12.67;;;3.80;99.90;;;;;;5036608;28;20025;-67
2020/12/10 11:15:20;;;;;;;23.00;12.93;;;3.80;99.90;;;;;;5054486;28;20048;-66
2020/12/10 11:17:46;;;;;;;21.57;11.47;;;3.90;99.90;;;;;;5054507;28;20021;-67
2020/12/10 11:20:11;;;;;;;21.50;12.03;;;4.00;99.90;;;;;;5036571;28;20024;-67
2020/12/10 11:22:38;;;;;;;25.57;13.40;;;4.10;99.90;;;;;;5036565;28;20021;-67
2020/12/10 11:25:05;;;;;;;25.45;13.55;;;4.10;99.90;;;;;;5037542;28;20264;-67
2020/12/10 11:27:31;;;;;;;24.58;14.02;;;4.10;99.90;;;;;;5054651;28;20025;-67
2020/12/10 11:29:57;;;;;;;23.23;12.77;;;4.10;99.90;;;;;;5054816;28;20107;-68
2020/12/10 11:32:23;;;;;;;;;;;4.10;99.90;;;;;;5037282;28;20107;-68
2020/12/10 11:34:49;;;;;;;25.73;13.23;;;4.20;99.90;;;;;;5053925;28;20395;-70
2020/12/10 11:37:14;;;;;;;23.42;12.38;;;4.20;99.90;;;;;;5054690;28;20472;-68
2020/12/10 11:39:40;;;;;;;26.37;14.07;;;4.20;99.90;;;;;;5052996;28;20071;-68
2020/12/10 11:42:06;;;;;;;26.13;14.60;;;4.30;99.90;;;;;;5054290;28;20017;-68
2020/12/10 11:44:31;;;;;;;27.77;13.37;;;4.30;99.90;;;;;;5054333;28;20100;-68
2020/12/10 11:46:57;;;;;;;26.08;14.50;;;4.20;99.90;;;;;;5054628;28;20074;-68
2020/12/10 11:49:23;;;;;;;27.73;13.50;;;4.20;99.90;;;;;;5052990;28;20115;-68
2020/12/10 11:51:48;;;;;;;31.20;14.93;;;4.30;99.90;;;;;;5038147;28;20478;-68
2020/12/10 11:54:14;;;;;;;26.90;14.40;;;4.30;99.90;;;;;;5038631;28;20036;-68
2020/12/10 11:56:39;;;;;;;28.30;15.47;;;4.30;99.90;;;;;;5055288;28;20035;-69
2020/12/10 11:59:05;;;;;;;28.47;14.97;;;4.20;99.90;;;;;;5037165;28;20029;-68
2020/12/10 12:01:31;;;;;;;34.23;16.43;;;4.10;99.90;;;;;;5054321;28;20029;-67
2020/12/10 12:03:57;;;;;;;31.20;15.93;;;4.00;99.90;;;;;;5054477;28;20025;-67
2020/12/10 12:06:23;;;;;;;33.47;15.68;;;4.00;99.90;;;;;;5053618;28;20025;-67
2020/12/10 12:08:50;;;;;;;28.67;15.80;;;4.00;99.90;;;;;;5054501;28;20021;-68
2020/12/10 12:11:21;;;;;;;35.65;16.50;;;4.10;99.90;;;;;;5054276;28;20555;-68
2020/12/10 12:13:47;;;;;;;37.83;16.95;;;4.10;99.90;;;;;;5054023;28;20028;-68
2020/12/10 12:16:12;;;;;;;31.93;16.80;;;4.10;99.90;;;;;;5054124;28;20025;-68
2020/12/10 12:18:38;;;;;;;29.37;15.77;;;4.10;99.90;;;;;;5054673;28;20029;-69
2020/12/10 12:21:04;;;;;;;28.37;15.00;;;4.00;99.90;;;;;;5037268;28;20032;-68
2020/12/10 12:23:29;;;;;;;35.20;16.90;;;4.00;99.90;;;;;;5055222;28;20032;-68
2020/12/10 12:25:55;;;;;;;34.50;16.77;;;4.00;99.90;;;;;;5054060;28;20488;-69
2020/12/10 12:28:20;;;;;;;32.23;16.10;;;4.10;99.90;;;;;;5036318;28;20104;-68
2020/12/10 12:30:46;;;;;;;27.50;14.87;;;4.20;99.90;;;;;;5053956;28;20092;-69
2020/12/10 12:33:12;;;;;;;31.08;15.63;;;4.20;99.90;;;;;;5056454;28;20057;-70
2020/12/10 12:35:39;;;;;;;26.10;14.73;;;4.10;99.90;;;;;;5056096;28;20420;-68
2020/12/10 12:38:05;;;;;;;29.95;15.38;;;4.10;99.90;;;;;;5057140;28;20330;-69
2020/12/10 12:40:31;;;;;;;30.08;15.00;;;4.00;99.90;;;;;;5038315;28;20081;-69